createdAt,value
2022-11-13T00:00:52.675Z,12.57
2022-11-13T00:02:55.863Z,10.60
2022-11-13T00:04:59.075Z,10.60
2022-11-13T00:07:04.920Z,10.95
2022-11-13T00:09:12.360Z,11.27
2022-11-13T00:11:18.501Z,10.68
2022-11-13T00:13:23.979Z,9.03
2022-11-13T00:15:31.137Z,9.15
2022-11-13T00:17:34.382Z,9.68
2022-11-13T00:19:38.001Z,7.03
2022-11-13T00:21:41.310Z,7.55
2022-11-13T00:23:45.213Z,7.10
2022-11-13T00:25:49.969Z,8.07
2022-11-13T00:27:53.593Z,8.18
2022-11-13T00:29:56.824Z,8.43
2022-11-13T00:32:00.399Z,8.35
2022-11-13T00:36:29.031Z,10.35
2022-11-13T00:38:32.717Z,10.03
2022-11-13T00:40:36.023Z,9.45
2022-11-13T00:42:40.734Z,10.13
2022-11-13T00:44:43.925Z,8.40
2022-11-13T00:46:47.175Z,8.73
2022-11-13T00:48:50.554Z,7.20
2022-11-13T00:50:54.694Z,8.02
2022-11-13T00:52:57.905Z,7.97
2022-11-13T00:55:01.395Z,6.20
2022-11-13T00:57:04.646Z,5.28
2022-11-13T00:59:09.337Z,5.00
2022-11-13T01:01:14.763Z,5.40
2022-11-13T01:03:19.278Z,5.18
2022-11-13T01:05:22.532Z,4.80
2022-11-13T01:07:25.760Z,4.65
2022-11-13T01:09:28.967Z,4.43
2022-11-13T01:11:35.975Z,4.97
2022-11-13T01:13:39.667Z,4.43
2022-11-13T01:15:45.952Z,4.63
2022-11-13T01:17:49.155Z,4.18
2022-11-13T01:19:56.317Z,3.78
2022-11-13T01:21:59.643Z,4.68
2022-11-13T01:24:03.207Z,4.60
2022-11-13T01:26:10.018Z,4.10
2022-11-13T01:28:13.290Z,4.70
2022-11-13T01:30:16.640Z,4.82
2022-11-13T01:32:21.301Z,5.43
2022-11-13T01:34:24.691Z,4.82
2022-11-13T01:36:29.429Z,6.30
2022-11-13T01:38:36.253Z,5.13
2022-11-13T01:40:46.706Z,5.32
2022-11-13T01:42:49.914Z,6.20
2022-11-13T01:44:54.919Z,5.30
2022-11-13T01:46:58.475Z,5.43
2022-11-13T01:49:16.515Z,5.57
2022-11-13T01:51:25.437Z,4.80
2022-11-13T01:53:29.741Z,5.00
2022-11-13T01:55:33.123Z,7.45
2022-11-13T01:57:36.677Z,5.85
2022-11-13T01:59:42.979Z,6.55
2022-11-13T02:01:46.572Z,7.70
2022-11-13T02:03:50.132Z,7.32
2022-11-13T02:05:55.724Z,7.65
2022-11-13T02:07:59.020Z,7.53
2022-11-13T02:10:05.778Z,6.07
2022-11-13T02:12:12.966Z,6.75
2022-11-13T02:14:17.171Z,5.20
2022-11-13T02:16:23.184Z,5.15
2022-11-13T02:18:28.871Z,5.47
2022-11-13T02:20:39.180Z,5.38
2022-11-13T02:22:51.795Z,5.68
2022-11-13T02:25:00.206Z,5.78
2022-11-13T02:27:07.034Z,5.57
2022-11-13T02:29:10.367Z,5.68
2022-11-13T02:31:15.359Z,4.85
2022-11-13T02:33:24.053Z,4.80
2022-11-13T02:35:29.761Z,5.18
2022-11-13T02:37:33.158Z,5.57
2022-11-13T02:39:36.752Z,5.93
2022-11-13T02:41:41.559Z,4.90
2022-11-13T02:43:44.865Z,4.97
2022-11-13T02:45:48.036Z,5.40
2022-11-13T02:47:51.379Z,5.50
2022-11-13T02:49:54.677Z,5.63
2022-11-13T02:51:57.923Z,6.68
2022-11-13T02:54:01.559Z,5.60
2022-11-13T02:56:05.016Z,5.30
2022-11-13T02:58:09.722Z,6.50
2022-11-13T03:00:14.503Z,6.65
2022-11-13T03:02:17.794Z,5.57
2022-11-13T03:04:21.024Z,6.57
2022-11-13T03:06:24.279Z,5.00
2022-11-13T03:08:27.906Z,5.95
2022-11-13T03:10:31.307Z,5.38
2022-11-13T03:12:35.435Z,5.40
2022-11-13T03:14:40.129Z,7.00
2022-11-13T03:16:43.650Z,6.25
2022-11-13T03:18:46.942Z,7.35
2022-11-13T03:20:53.990Z,6.90
2022-11-13T03:22:57.311Z,6.68
2022-11-13T03:25:00.579Z,5.93
2022-11-13T03:27:04.070Z,6.55
2022-11-13T03:29:07.360Z,6.13
2022-11-13T03:31:12.143Z,6.60
2022-11-13T03:33:17.555Z,7.10
2022-11-13T03:35:20.994Z,6.68
2022-11-13T03:37:24.265Z,7.10
2022-11-13T03:39:27.417Z,7.68
2022-11-13T03:41:30.852Z,8.00
2022-11-13T03:43:34.006Z,7.22
2022-11-13T03:45:37.218Z,7.88
2022-11-13T03:47:42.022Z,7.40
2022-11-13T03:49:45.813Z,7.00
2022-11-13T03:51:49.103Z,5.90
2022-11-13T03:53:52.388Z,7.07
2022-11-13T03:55:55.824Z,6.45
2022-11-13T03:57:59.038Z,7.43
2022-11-13T04:00:04.586Z,7.38
2022-11-13T04:02:07.824Z,7.88
2022-11-13T04:04:12.831Z,8.18
2022-11-13T04:06:16.032Z,7.10
2022-11-13T04:08:19.367Z,8.23
2022-11-13T04:10:22.620Z,8.10
2022-11-13T04:12:25.984Z,7.32
2022-11-13T04:14:29.190Z,8.25
2022-11-13T04:16:32.420Z,8.27
2022-11-13T04:18:35.825Z,10.00
2022-11-13T04:20:40.486Z,9.45
2022-11-13T04:22:44.251Z,9.38
2022-11-13T04:24:47.563Z,10.82
2022-11-13T04:26:50.723Z,9.50
2022-11-13T04:28:54.280Z,10.95
2022-11-13T04:30:57.759Z,9.95
2022-11-13T04:33:01.205Z,9.65
2022-11-13T04:35:04.868Z,11.93
2022-11-13T04:37:09.586Z,10.07
2022-11-13T04:39:12.773Z,10.65
2022-11-13T04:41:52.519Z,10.20
2022-11-13T04:43:58.313Z,10.05
2022-11-13T04:46:01.660Z,13.65
2022-11-13T04:48:05.210Z,11.52
2022-11-13T04:50:08.778Z,11.02
2022-11-13T04:52:14.069Z,12.23
2022-11-13T04:54:17.420Z,13.32
2022-11-13T04:56:21.001Z,12.98
2022-11-13T04:58:24.316Z,12.18
2022-11-13T05:00:27.573Z,10.00
2022-11-13T05:02:30.870Z,8.70
2022-11-13T05:04:34.312Z,10.27
2022-11-13T05:06:37.555Z,9.13
2022-11-13T05:08:42.490Z,11.15
2022-11-13T05:10:45.728Z,10.40
2022-11-13T05:12:48.925Z,9.38
2022-11-13T05:14:52.218Z,10.30
2022-11-13T05:16:55.401Z,10.23
2022-11-13T05:19:00.132Z,10.65
2022-11-13T05:21:03.660Z,11.05
2022-11-13T05:23:06.914Z,10.07
2022-11-13T05:25:11.692Z,10.35
2022-11-13T05:27:17.548Z,9.15
2022-11-13T05:29:21.342Z,10.05
2022-11-13T05:31:24.625Z,8.90
2022-11-13T05:33:30.534Z,9.80
2022-11-13T05:35:34.130Z,10.13
2022-11-13T05:37:37.363Z,10.63
2022-11-13T05:39:40.542Z,11.38
2022-11-13T05:41:45.129Z,11.15
2022-11-13T05:43:49.022Z,11.15
2022-11-13T05:45:52.442Z,11.93
2022-11-13T05:47:55.659Z,12.68
2022-11-13T05:49:58.889Z,15.27
2022-11-13T05:52:02.124Z,14.20
2022-11-13T05:54:06.234Z,12.48
2022-11-13T05:56:12.451Z,11.23
2022-11-13T05:58:17.069Z,12.77
2022-11-13T06:00:20.647Z,13.80
2022-11-13T06:02:24.002Z,13.07
2022-11-13T06:04:27.349Z,12.25
2022-11-13T06:06:31.917Z,12.00
2022-11-13T06:08:35.527Z,11.90
2022-11-13T06:10:38.808Z,12.10
2022-11-13T06:12:41.974Z,15.18
2022-11-13T06:14:46.764Z,12.40
2022-11-13T06:16:50.000Z,11.18
2022-11-13T06:18:56.714Z,11.98
2022-11-13T06:21:02.726Z,10.77
2022-11-13T06:23:05.949Z,10.82
2022-11-13T06:25:09.346Z,13.30
2022-11-13T06:27:13.018Z,12.23
2022-11-13T06:29:16.201Z,12.95
2022-11-13T06:31:24.386Z,19.70
2022-11-13T06:33:29.789Z,15.32
2022-11-13T06:35:33.423Z,14.52
2022-11-13T06:37:36.663Z,13.50
2022-11-13T06:39:40.106Z,12.45
2022-11-13T06:41:43.261Z,12.57
2022-11-13T06:43:47.731Z,12.82
2022-11-13T06:45:51.321Z,13.05
2022-11-13T06:47:56.948Z,12.85
2022-11-13T06:50:00.210Z,12.60
2022-11-13T06:52:03.474Z,11.95
2022-11-13T06:54:06.880Z,12.07
2022-11-13T06:56:10.311Z,10.52
2022-11-13T06:58:13.811Z,13.10
2022-11-13T07:00:18.238Z,11.90
2022-11-13T07:02:21.545Z,12.88
2022-11-13T07:04:26.545Z,12.90
2022-11-13T07:06:29.837Z,15.38
2022-11-13T07:08:33.384Z,13.98
2022-11-13T07:10:36.722Z,16.38
2022-11-13T07:12:41.753Z,14.93
2022-11-13T07:14:45.070Z,16.02
2022-11-13T07:17:08.627Z,15.05
2022-11-13T07:19:11.712Z,14.93
2022-11-13T07:21:16.238Z,15.88
2022-11-13T07:23:19.550Z,13.68
2022-11-13T07:25:23.098Z,14.70
2022-11-13T07:27:26.390Z,14.93
2022-11-13T07:29:29.627Z,13.15
2022-11-13T07:31:32.928Z,11.50
2022-11-13T07:33:36.203Z,12.73
2022-11-13T07:35:39.652Z,13.13
2022-11-13T07:37:44.580Z,13.73
2022-11-13T07:39:47.770Z,12.75
2022-11-13T07:41:50.998Z,13.98
2022-11-13T07:43:54.550Z,13.73
2022-11-13T07:46:01.754Z,14.07
2022-11-13T07:48:05.991Z,14.82
2022-11-13T07:50:11.145Z,13.73
2022-11-13T07:52:14.554Z,11.98
2022-11-13T07:54:19.176Z,9.82
2022-11-13T07:56:23.408Z,9.18
2022-11-13T07:58:27.167Z,11.68
2022-11-13T08:00:33.153Z,11.90
2022-11-13T08:02:36.757Z,12.32
2022-11-13T08:04:40.116Z,16.03
2022-11-13T08:06:43.910Z,18.80
2022-11-13T08:08:49.097Z,22.27
2022-11-13T08:10:54.068Z,21.27
2022-11-13T08:13:02.136Z,23.70
2022-11-13T08:15:09.369Z,23.27
2022-11-13T08:17:16.779Z,22.13
2022-11-13T08:19:20.070Z,20.90
2022-11-13T08:21:23.363Z,22.83
2022-11-13T08:23:26.957Z,20.77
2022-11-13T08:25:30.950Z,22.37
2022-11-13T08:27:35.789Z,22.10
2022-11-13T08:29:39.237Z,23.17
2022-11-13T08:31:42.578Z,23.13
2022-11-13T08:33:45.970Z,22.47
2022-11-13T08:35:59.628Z,19.60
2022-11-13T08:38:07.016Z,19.60
2022-11-13T08:40:11.505Z,20.87
2022-11-13T08:42:15.190Z,18.50
2022-11-13T08:44:19.929Z,18.50
2022-11-13T08:46:23.231Z,20.93
2022-11-13T08:48:26.817Z,19.57
2022-11-13T08:50:31.541Z,21.17
2022-11-13T08:52:34.883Z,18.57
2022-11-13T08:54:38.255Z,19.33
2022-11-13T08:56:41.661Z,17.27
2022-11-13T08:58:45.061Z,18.30
2022-11-13T09:00:49.738Z,19.73
2022-11-13T09:02:55.885Z,19.90
2022-11-13T09:04:59.095Z,17.40
2022-11-13T09:07:02.323Z,18.03
2022-11-13T09:09:06.818Z,18.17
2022-11-13T09:11:10.218Z,18.83
2022-11-13T09:13:13.454Z,18.90
2022-11-13T09:15:21.696Z,18.97
2022-11-13T09:17:28.753Z,17.87
2022-11-13T09:19:32.143Z,18.40
2022-11-13T09:21:35.513Z,19.00
2022-11-13T09:23:39.107Z,17.30
2022-11-13T09:25:42.608Z,19.67
2022-11-13T09:27:53.094Z,19.83
2022-11-13T09:29:56.349Z,18.30
2022-11-13T09:31:59.595Z,16.50
2022-11-13T09:34:04.365Z,17.33
2022-11-13T09:36:13.119Z,17.37
2022-11-13T09:38:17.290Z,17.20
2022-11-13T09:40:29.157Z,16.40
2022-11-13T09:42:34.238Z,16.47
2022-11-13T09:44:41.598Z,16.37
2022-11-13T09:46:48.833Z,17.27
2022-11-13T09:48:57.193Z,17.53
2022-11-13T09:51:07.605Z,15.53
2022-11-13T09:53:13.197Z,14.37
2022-11-13T09:55:19.986Z,15.23
2022-11-13T09:57:33.750Z,14.33
2022-11-13T09:59:41.014Z,14.97
2022-11-13T10:01:52.487Z,14.80
2022-11-13T10:04:04.330Z,14.67
2022-11-13T10:06:22.274Z,13.30
2022-11-13T10:08:29.612Z,14.30
2022-11-13T10:10:48.259Z,13.57
2022-11-13T10:12:59.383Z,15.83
2022-11-13T10:15:06.275Z,15.10
2022-11-13T10:17:15.463Z,17.50
2022-11-13T10:19:25.897Z,15.90
2022-11-13T10:21:36.360Z,17.40
2022-11-13T10:23:40.267Z,19.13
2022-11-13T10:25:45.699Z,17.27
2022-11-13T10:27:55.253Z,17.50
2022-11-13T10:29:58.876Z,15.90
2022-11-13T10:32:18.894Z,17.90
2022-11-13T10:34:22.683Z,17.83
2022-11-13T10:36:35.414Z,17.47
2022-11-13T10:38:44.559Z,15.37
2022-11-13T10:40:47.841Z,12.30
2022-11-13T10:42:51.113Z,15.37
2022-11-13T10:44:56.975Z,13.60
2022-11-13T10:47:15.012Z,12.23
2022-11-13T10:49:21.160Z,11.17
2022-11-13T10:51:27.500Z,12.47
2022-11-13T10:53:42.705Z,14.57
2022-11-13T10:55:47.470Z,10.93
2022-11-13T10:57:57.770Z,13.80
2022-11-13T11:00:01.382Z,15.20
2022-11-13T11:02:16.967Z,16.40
2022-11-13T11:04:24.085Z,15.13
2022-11-13T11:07:04.478Z,14.50
2022-11-13T11:09:09.326Z,17.47
2022-11-13T11:11:34.108Z,16.23
2022-11-13T11:13:37.350Z,17.40
2022-11-13T11:15:46.274Z,15.40
2022-11-13T11:17:54.074Z,17.10
2022-11-13T11:20:02.938Z,15.37
2022-11-13T11:22:14.602Z,15.30
2022-11-13T11:24:24.873Z,16.23
2022-11-13T11:26:34.919Z,16.30
2022-11-13T11:28:44.317Z,15.80
2022-11-13T11:30:51.733Z,15.30
2022-11-13T11:33:02.044Z,14.90
2022-11-13T11:35:15.668Z,15.10
2022-11-13T11:37:20.921Z,14.33
2022-11-13T11:39:33.486Z,13.93
2022-11-13T11:41:47.132Z,11.80
2022-11-13T11:44:02.381Z,11.80
2022-11-13T11:46:05.972Z,12.30
2022-11-13T11:48:15.427Z,12.73
2022-11-13T11:50:28.541Z,13.57
2022-11-13T11:52:50.963Z,13.77
2022-11-13T11:55:22.003Z,15.03
2022-11-13T11:57:39.631Z,14.00
2022-11-13T11:59:54.636Z,13.50
2022-11-13T12:02:36.281Z,14.30
2022-11-13T12:04:54.216Z,13.30
2022-11-13T12:07:11.537Z,13.77
2022-11-13T12:09:21.074Z,12.10
2022-11-13T12:11:30.564Z,12.83
2022-11-13T12:13:38.329Z,13.30
2022-11-13T12:15:49.087Z,14.90
2022-11-13T12:18:00.551Z,16.27
2022-11-13T12:20:10.700Z,16.47
2022-11-13T12:22:20.992Z,14.43
2022-11-13T12:24:55.124Z,14.63
2022-11-13T12:27:11.608Z,14.83
2022-11-13T12:29:29.228Z,13.17
2022-11-13T12:31:48.550Z,15.70
2022-11-13T12:34:01.521Z,15.97
2022-11-13T12:36:06.316Z,12.80
2022-11-13T12:38:19.317Z,15.10
2022-11-13T12:40:29.320Z,13.63
2022-11-13T12:42:37.156Z,14.83
2022-11-13T12:44:48.590Z,14.97
2022-11-13T12:46:54.113Z,14.80
2022-11-13T12:48:57.364Z,14.80
2022-11-13T12:51:03.840Z,14.23
2022-11-13T12:53:09.854Z,13.80
2022-11-13T12:55:27.872Z,15.07
2022-11-13T12:57:33.980Z,15.47
2022-11-13T12:59:42.199Z,15.40
2022-11-13T13:01:49.314Z,14.87
2022-11-13T13:04:40.221Z,15.47
2022-11-13T13:06:58.891Z,13.03
2022-11-13T13:09:17.255Z,12.10
2022-11-13T13:11:28.180Z,13.90
2022-11-13T13:13:42.287Z,12.67
2022-11-13T13:15:54.527Z,14.70
2022-11-13T13:18:11.841Z,12.57
2022-11-13T13:20:34.293Z,12.47
2022-11-13T13:22:37.976Z,12.00
2022-11-13T13:24:41.791Z,12.67
2022-11-13T13:26:48.813Z,9.47
2022-11-13T13:28:55.681Z,9.90
2022-11-13T13:31:09.592Z,9.60
2022-11-13T13:33:22.883Z,11.50
2022-11-13T13:35:31.922Z,9.23
2022-11-13T13:37:44.379Z,8.80
2022-11-13T13:39:59.700Z,8.57
2022-11-13T13:42:17.130Z,9.43
2022-11-13T13:44:42.743Z,9.03
2022-11-13T13:46:46.278Z,9.83
2022-11-13T13:48:53.401Z,9.70
2022-11-13T13:50:57.813Z,10.40
2022-11-13T13:53:01.860Z,9.60
2022-11-13T13:55:08.959Z,10.77
2022-11-13T13:57:16.064Z,12.60
2022-11-13T13:59:21.693Z,11.87
2022-11-13T14:01:31.209Z,12.57
2022-11-13T14:03:34.670Z,12.27
2022-11-13T14:05:38.642Z,13.80
2022-11-13T14:07:47.487Z,11.67
2022-11-13T14:09:51.162Z,12.40
2022-11-13T14:12:06.341Z,10.73
2022-11-13T14:14:17.634Z,12.03
2022-11-13T14:16:20.897Z,12.70
2022-11-13T14:18:27.364Z,12.17
2022-11-13T14:20:46.363Z,12.83
2022-11-13T14:22:56.360Z,12.40
2022-11-13T14:25:02.051Z,11.63
2022-11-13T14:27:08.371Z,13.63
2022-11-13T14:29:23.663Z,14.30
2022-11-13T14:31:30.569Z,13.40
2022-11-13T14:33:39.435Z,15.43
2022-11-13T14:35:42.943Z,15.00
2022-11-13T14:37:47.362Z,14.90
2022-11-13T14:39:51.964Z,14.07
2022-11-13T14:41:58.617Z,14.50
2022-11-13T14:44:01.927Z,14.37
2022-11-13T14:46:07.203Z,14.07
2022-11-13T14:48:21.677Z,14.00
2022-11-13T14:50:28.685Z,14.77
2022-11-13T14:52:31.942Z,15.40
2022-11-13T14:55:08.006Z,14.90
2022-11-13T14:57:11.533Z,14.53
2022-11-13T14:59:19.851Z,14.10
2022-11-13T15:01:25.585Z,15.00
2022-11-13T15:03:31.169Z,14.90
2022-11-13T15:05:36.469Z,15.73
2022-11-13T15:07:43.444Z,16.30
2022-11-13T15:09:46.937Z,15.60
2022-11-13T15:11:50.949Z,14.47
2022-11-13T15:13:54.662Z,16.70
2022-11-13T15:15:58.137Z,17.90
2022-11-13T15:18:03.526Z,18.47
2022-11-13T15:20:09.790Z,15.40
2022-11-13T15:22:31.304Z,19.47
2022-11-13T15:24:34.748Z,19.13
2022-11-13T15:26:38.140Z,17.40
2022-11-13T15:28:41.788Z,18.00
2022-11-13T15:30:45.179Z,16.60
2022-11-13T15:32:49.338Z,17.40
2022-11-13T15:34:52.566Z,18.00
2022-11-13T15:36:55.960Z,19.03
2022-11-13T15:39:06.116Z,20.37
2022-11-13T15:41:13.964Z,19.00
2022-11-13T15:43:20.279Z,18.67
2022-11-13T15:45:23.644Z,19.50
2022-11-13T15:47:29.358Z,20.67
2022-11-13T15:49:32.679Z,21.25
2022-11-13T15:51:39.045Z,21.93
2022-11-13T15:53:42.482Z,23.17
2022-11-13T15:55:47.378Z,24.00
2022-11-13T15:57:51.241Z,20.50
2022-11-13T15:59:54.882Z,21.58
2022-11-13T16:01:58.512Z,19.15
2022-11-13T16:04:02.580Z,18.00
2022-11-13T16:06:05.934Z,18.25
2022-11-13T16:08:13.962Z,19.48
2022-11-13T16:10:17.373Z,18.88
2022-11-13T16:12:21.967Z,20.35
2022-11-13T16:14:25.542Z,19.67
2022-11-13T16:16:32.007Z,22.08
2022-11-13T16:18:35.648Z,20.27
2022-11-13T16:20:38.828Z,21.10
2022-11-13T16:22:42.389Z,21.27
2022-11-13T16:24:45.988Z,19.98
2022-11-13T16:26:52.041Z,20.50
2022-11-13T16:29:13.189Z,20.30
2022-11-13T16:31:17.374Z,19.27
2022-11-13T16:33:20.755Z,22.80
2022-11-13T16:35:23.964Z,18.60
2022-11-13T16:37:27.170Z,18.95
2022-11-13T16:39:30.351Z,20.85
2022-11-13T16:41:34.022Z,19.88
2022-11-13T16:43:37.209Z,19.65
2022-11-13T16:45:41.926Z,17.90
2022-11-13T16:47:46.046Z,17.67
2022-11-13T16:49:49.325Z,20.02
2022-11-13T16:51:53.697Z,22.05
2022-11-13T16:53:57.143Z,21.73
2022-11-13T16:56:01.796Z,20.30
2022-11-13T16:58:05.971Z,20.42
2022-11-13T17:00:13.405Z,21.80
2022-11-13T17:02:19.611Z,20.10
2022-11-13T17:04:23.281Z,25.98
2022-11-13T17:06:28.753Z,30.60
2022-11-13T17:08:32.055Z,34.03
2022-11-13T17:10:35.441Z,29.90
2022-11-13T17:12:38.832Z,27.95
2022-11-13T17:14:42.275Z,28.45
2022-11-13T17:16:45.577Z,29.60
2022-11-13T17:18:52.116Z,34.30
2022-11-13T17:20:55.472Z,38.50
2022-11-13T17:22:58.858Z,38.45
2022-11-13T17:25:02.189Z,36.78
2022-11-13T17:27:05.748Z,35.35
2022-11-13T17:29:09.039Z,36.35
2022-11-13T17:31:13.807Z,31.38
2022-11-13T17:33:17.552Z,37.55
2022-11-13T17:35:22.309Z,36.60
2022-11-13T17:37:25.633Z,27.65
2022-11-13T17:39:29.031Z,35.05
2022-11-13T17:41:32.279Z,31.48
2022-11-13T17:43:36.987Z,35.28
2022-11-13T17:45:40.764Z,36.35
2022-11-13T17:47:44.096Z,35.38
2022-11-13T17:49:47.812Z,33.35
2022-11-13T17:51:52.418Z,36.88
2022-11-13T17:53:58.562Z,34.30
2022-11-13T17:56:03.635Z,32.08
2022-11-13T17:58:07.016Z,32.97
2022-11-13T18:00:11.473Z,29.52
2022-11-13T18:02:14.787Z,30.25
2022-11-13T18:04:17.986Z,29.63
2022-11-13T18:06:21.953Z,31.95
2022-11-13T18:08:26.604Z,31.75
2022-11-13T18:10:29.928Z,31.27
2022-11-13T18:12:33.535Z,36.25
2022-11-13T18:14:36.734Z,30.33
2022-11-13T18:16:39.991Z,32.75
2022-11-13T18:18:43.743Z,37.20
2022-11-13T18:20:46.950Z,36.55
2022-11-13T18:22:50.320Z,28.50
2022-11-13T18:24:55.659Z,33.28
2022-11-13T18:26:58.872Z,32.75
2022-11-13T18:29:02.710Z,32.63
2022-11-13T18:31:10.391Z,32.10
2022-11-13T18:33:13.765Z,35.40
2022-11-13T18:35:17.162Z,31.23
2022-11-13T18:37:20.385Z,30.88
2022-11-13T18:39:23.656Z,30.10
2022-11-13T18:41:28.374Z,28.23
2022-11-13T18:43:31.907Z,32.83
2022-11-13T18:45:35.351Z,35.08
2022-11-13T18:47:38.637Z,39.75
2022-11-13T18:49:41.799Z,39.28
2022-11-13T18:51:45.013Z,32.97
2022-11-13T18:53:49.951Z,32.53
2022-11-13T18:55:53.432Z,30.95
2022-11-13T18:57:58.267Z,34.10
2022-11-13T19:00:01.460Z,33.00
2022-11-13T19:02:05.005Z,33.15
2022-11-13T19:04:24.319Z,32.75
2022-11-13T19:06:28.479Z,34.15
2022-11-13T19:08:31.949Z,32.53
2022-11-13T19:10:35.572Z,32.53
2022-11-13T19:12:38.965Z,32.22
2022-11-13T19:14:44.009Z,32.35
2022-11-13T19:16:47.652Z,33.25
2022-11-13T19:18:53.625Z,31.70
2022-11-13T19:20:57.096Z,32.80
2022-11-13T19:23:03.983Z,30.50
2022-11-13T19:25:10.120Z,31.88
2022-11-13T19:27:13.426Z,29.58
2022-11-13T19:29:16.790Z,29.52
2022-11-13T19:31:23.811Z,30.80
2022-11-13T19:33:28.368Z,27.33
2022-11-13T19:35:33.490Z,28.70
2022-11-13T19:37:36.820Z,30.35
2022-11-13T19:39:40.106Z,28.70
2022-11-13T19:41:43.775Z,31.42
2022-11-13T19:43:48.027Z,31.95
2022-11-13T19:45:54.168Z,32.00
2022-11-13T19:47:59.413Z,29.90
2022-11-13T19:50:02.907Z,30.15
2022-11-13T19:52:06.566Z,32.75
2022-11-13T19:54:10.366Z,29.88
2022-11-13T19:56:15.392Z,29.42
2022-11-13T19:58:19.037Z,32.40
2022-11-13T20:00:22.357Z,32.33
2022-11-13T20:02:25.995Z,41.03
2022-11-13T20:04:31.102Z,38.83
2022-11-13T20:06:34.861Z,37.25
2022-11-13T20:08:39.104Z,41.00
2022-11-13T20:10:42.527Z,44.15
2022-11-13T20:12:46.477Z,42.40
2022-11-13T20:14:49.803Z,40.78
2022-11-13T20:16:53.171Z,42.20
2022-11-13T20:18:58.592Z,43.13
2022-11-13T20:21:03.470Z,43.17
2022-11-13T20:23:07.119Z,45.10
2022-11-13T20:25:11.022Z,41.10
2022-11-13T20:27:14.358Z,45.58
2022-11-13T20:29:17.809Z,42.20
2022-11-13T20:31:22.844Z,38.35
2022-11-13T20:33:26.374Z,39.95
2022-11-13T20:35:29.621Z,40.25
2022-11-13T20:37:34.878Z,36.20
2022-11-13T20:39:39.008Z,39.65
2022-11-13T20:41:42.564Z,37.97
2022-11-13T20:43:45.855Z,37.97
2022-11-13T20:45:49.146Z,36.17
2022-11-13T20:47:52.441Z,37.08
2022-11-13T20:49:55.982Z,37.40
2022-11-13T20:51:59.166Z,34.33
2022-11-13T20:54:04.003Z,33.42
2022-11-13T20:56:08.421Z,31.67
2022-11-13T20:58:11.854Z,30.00
2022-11-13T21:00:16.235Z,27.02
2022-11-13T21:02:19.590Z,25.13
2022-11-13T21:04:23.525Z,28.00
2022-11-13T21:06:27.159Z,25.65
2022-11-13T21:08:30.628Z,25.60
2022-11-13T21:10:36.505Z,27.10
2022-11-13T21:12:39.914Z,28.60
2022-11-13T21:14:44.259Z,32.05
2022-11-13T21:16:47.466Z,31.52
2022-11-13T21:18:50.944Z,35.92
2022-11-13T21:20:54.322Z,34.47
2022-11-13T21:22:58.810Z,33.40
2022-11-13T21:25:02.038Z,31.65
2022-11-13T21:29:31.825Z,29.67
2022-11-13T21:31:38.432Z,30.48
2022-11-13T21:33:43.289Z,30.85
2022-11-13T21:35:46.916Z,30.25
2022-11-13T21:37:50.310Z,30.60
2022-11-13T21:39:53.625Z,30.83
2022-11-13T21:41:59.677Z,30.60
2022-11-13T21:44:08.117Z,28.73
2022-11-13T21:46:11.298Z,30.20
2022-11-13T21:48:16.967Z,29.70
2022-11-13T21:50:20.252Z,31.67
2022-11-13T21:52:23.470Z,30.13
2022-11-13T21:54:26.867Z,31.67
2022-11-13T21:56:31.715Z,33.60
2022-11-13T21:58:37.766Z,30.83
2022-11-13T22:00:42.473Z,32.17
2022-11-13T22:02:45.641Z,30.67
2022-11-13T22:04:48.806Z,28.38
2022-11-13T22:06:52.792Z,29.80
2022-11-13T22:08:57.779Z,28.50
2022-11-13T22:11:01.091Z,27.75
2022-11-13T22:13:04.500Z,26.40
2022-11-13T22:15:09.757Z,26.50
2022-11-13T22:17:14.484Z,25.50
2022-11-13T22:19:24.045Z,26.70
2022-11-13T22:21:31.302Z,25.20
2022-11-13T22:23:35.729Z,24.70
2022-11-13T22:25:38.996Z,24.40
2022-11-13T22:27:42.203Z,24.50
2022-11-13T22:29:45.559Z,26.57
2022-11-13T22:31:48.779Z,24.15
2022-11-13T22:33:55.283Z,27.00
2022-11-13T22:36:02.891Z,26.25
2022-11-13T22:38:06.440Z,26.75
2022-11-13T22:40:13.259Z,24.95
2022-11-13T22:42:16.649Z,25.95
2022-11-13T22:44:19.933Z,24.90
2022-11-13T22:46:25.184Z,26.60
2022-11-13T22:48:28.720Z,24.65
2022-11-13T22:50:35.876Z,25.65
2022-11-13T22:52:39.211Z,25.53
2022-11-13T22:54:42.432Z,24.35
2022-11-13T22:56:45.748Z,26.42
2022-11-13T22:58:49.109Z,26.17
2022-11-13T23:00:52.400Z,25.80
2022-11-13T23:02:55.792Z,25.08
2022-11-13T23:04:58.956Z,25.10
2022-11-13T23:07:03.777Z,24.98
2022-11-13T23:09:07.502Z,26.15
2022-11-13T23:11:13.795Z,23.63
2022-11-13T23:13:17.306Z,26.70
2022-11-13T23:15:20.546Z,27.17
2022-11-13T23:17:23.759Z,27.42
2022-11-13T23:19:26.940Z,26.70
2022-11-13T23:21:30.702Z,27.05
2022-11-13T23:23:36.370Z,27.17
2022-11-13T23:25:40.008Z,27.70
2022-11-13T23:27:43.212Z,24.23
2022-11-13T23:29:50.092Z,28.37
2022-11-13T23:31:54.094Z,27.47
2022-11-13T23:33:57.632Z,28.48
2022-11-13T23:36:02.048Z,26.33
2022-11-13T23:38:05.589Z,24.02
2022-11-13T23:40:11.472Z,26.63
2022-11-13T23:42:23.970Z,24.58
2022-11-13T23:44:39.132Z,28.57
2022-11-13T23:46:43.278Z,24.70
2022-11-13T23:48:46.878Z,23.92
2022-11-13T23:50:50.467Z,22.90
2022-11-13T23:52:53.862Z,22.23
2022-11-13T23:54:57.152Z,22.25
2022-11-13T23:57:01.743Z,20.88
2022-11-13T23:59:04.989Z,22.15
